createdAt,value
2018-04-19T00:01:15.026Z,14.80
2018-04-19T00:03:43.230Z,14.80
2018-04-19T00:06:10.679Z,14.70
2018-04-19T00:08:38.110Z,14.70
2018-04-19T00:11:06.321Z,14.60
2018-04-19T00:13:33.762Z,14.60
2018-04-19T00:16:01.214Z,14.60
2018-04-19T00:18:29.418Z,14.60
2018-04-19T00:20:56.867Z,14.50
2018-04-19T00:23:24.300Z,14.60
2018-04-19T00:25:52.504Z,14.50
2018-04-19T00:28:19.956Z,14.50
2018-04-19T00:30:47.400Z,14.40
2018-04-19T00:33:15.090Z,14.40
2018-04-19T00:35:42.533Z,14.40
2018-04-19T00:38:09.964Z,14.40
2018-04-19T00:40:37.416Z,14.30
2018-04-19T00:43:05.626Z,14.30
2018-04-19T00:45:33.059Z,14.30
2018-04-19T00:48:00.505Z,14.30
2018-04-19T00:50:27.965Z,14.30
2018-04-19T00:53:07.372Z,14.30
2018-04-19T00:55:34.824Z,14.30
2018-04-19T00:58:02.280Z,14.30
2018-04-19T01:00:29.715Z,14.30
2018-04-19T01:02:57.158Z,14.30
2018-04-19T01:05:24.605Z,14.20
2018-04-19T01:07:52.058Z,14.20
2018-04-19T01:10:19.546Z,14.10
2018-04-19T01:12:47.695Z,14.10
2018-04-19T01:15:15.150Z,14.00
2018-04-19T01:17:42.611Z,14.00
2018-04-19T01:20:10.173Z,14.00
2018-04-19T01:22:37.619Z,14.00
2018-04-19T01:25:05.047Z,13.90
2018-04-19T01:27:33.263Z,13.90
2018-04-19T01:30:00.703Z,13.90
2018-04-19T01:32:28.145Z,13.90
2018-04-19T01:34:55.598Z,13.90
2018-04-19T01:37:23.806Z,13.80
2018-04-19T01:39:51.237Z,13.70
2018-04-19T01:42:18.686Z,13.80
2018-04-19T01:44:46.901Z,13.70
2018-04-19T01:47:14.320Z,13.70
2018-04-19T01:49:41.781Z,13.70
2018-04-19T01:52:09.217Z,13.70
2018-04-19T01:54:37.422Z,13.60
2018-04-19T01:57:04.873Z,13.60
2018-04-19T01:59:32.319Z,13.60
2018-04-19T02:02:00.529Z,13.60
2018-04-19T02:04:27.968Z,13.50
2018-04-19T02:06:55.417Z,13.60
2018-04-19T02:09:22.853Z,13.60
2018-04-19T02:11:51.064Z,13.50
2018-04-19T02:14:18.499Z,13.50
2018-04-19T02:16:45.946Z,13.50
2018-04-19T02:19:14.147Z,13.50
2018-04-19T02:21:41.581Z,13.50
2018-04-19T02:24:09.820Z,13.50
2018-04-19T02:26:37.277Z,13.40
2018-04-19T02:29:04.713Z,13.40
2018-04-19T02:31:32.169Z,13.40
2018-04-19T02:33:59.647Z,13.40
2018-04-19T02:36:27.068Z,13.40
2018-04-19T02:38:54.509Z,13.30
2018-04-19T02:41:21.958Z,13.30
2018-04-19T02:43:49.401Z,13.30
2018-04-19T02:46:17.634Z,13.20
2018-04-19T02:48:45.086Z,13.20
2018-04-19T02:51:12.518Z,13.20
2018-04-19T02:53:39.963Z,13.10
2018-04-19T02:56:07.401Z,13.10
2018-04-19T02:58:35.603Z,13.00
2018-04-19T03:01:03.047Z,13.00
2018-04-19T03:03:30.510Z,13.00
2018-04-19T03:05:57.952Z,13.00
2018-04-19T03:08:26.153Z,13.00
2018-04-19T03:10:53.624Z,12.90
2018-04-19T03:13:21.062Z,12.90
2018-04-19T03:15:48.494Z,12.90
2018-04-19T03:18:16.261Z,12.80
2018-04-19T03:20:44.028Z,12.80
2018-04-19T03:23:11.045Z,12.80
2018-04-19T03:25:38.048Z,12.80
2018-04-19T03:28:05.058Z,12.70
2018-04-19T03:30:32.071Z,12.70
2018-04-19T03:32:59.108Z,12.70
2018-04-19T03:35:26.145Z,12.70
2018-04-19T03:37:53.115Z,12.60
2018-04-19T03:40:20.914Z,12.60
2018-04-19T03:42:48.036Z,12.50
2018-04-19T03:45:15.031Z,12.60
2018-04-19T03:47:42.057Z,12.60
2018-04-19T03:50:09.067Z,12.60
2018-04-19T03:52:36.853Z,12.50
2018-04-19T03:55:04.634Z,12.50
2018-04-19T03:57:31.643Z,12.50
2018-04-19T03:59:58.649Z,12.50
2018-04-19T04:02:25.648Z,12.50
2018-04-19T04:04:53.410Z,12.50
2018-04-19T04:07:20.856Z,12.50
2018-04-19T04:09:48.298Z,12.50
2018-04-19T04:12:15.287Z,12.50
2018-04-19T04:14:43.521Z,12.50
2018-04-19T04:17:22.954Z,12.40
2018-04-19T04:20:02.224Z,12.50
2018-04-19T04:22:42.422Z,12.40
2018-04-19T04:25:09.863Z,12.40
2018-04-19T04:27:37.325Z,12.40
2018-04-19T04:30:04.770Z,12.40
2018-04-19T04:32:32.977Z,12.40
2018-04-19T04:35:00.447Z,12.30
2018-04-19T04:37:29.130Z,12.40
2018-04-19T04:39:56.569Z,12.40
2018-04-19T04:42:23.998Z,12.40
2018-04-19T04:44:52.253Z,12.40
2018-04-19T04:47:20.454Z,12.40
2018-04-19T04:49:47.891Z,12.40
2018-04-19T04:52:16.104Z,12.50
2018-04-19T04:54:43.559Z,12.40
2018-04-19T04:57:11.002Z,12.50
2018-04-19T04:59:38.442Z,12.50
2018-04-19T05:02:06.659Z,12.40
2018-04-19T05:04:34.084Z,12.40
2018-04-19T05:07:01.540Z,12.40
2018-04-19T05:09:28.979Z,12.30
2018-04-19T05:11:57.191Z,12.10
2018-04-19T05:14:24.645Z,12.10
2018-04-19T05:16:52.096Z,12.10
2018-04-19T05:19:19.521Z,12.00
2018-04-19T05:21:47.745Z,12.00
2018-04-19T05:24:15.204Z,11.90
2018-04-19T05:26:42.633Z,12.00
2018-04-19T05:29:10.094Z,12.00
2018-04-19T05:31:37.552Z,12.00
2018-04-19T05:34:05.088Z,12.00
2018-04-19T05:36:33.297Z,12.20
2018-04-19T05:39:00.718Z,12.10
2018-04-19T05:41:28.937Z,12.40
2018-04-19T05:43:56.370Z,12.30
2018-04-19T05:46:23.806Z,12.50
2018-04-19T05:48:52.020Z,12.70
2018-04-19T05:51:19.445Z,12.60
2018-04-19T05:53:46.894Z,12.70
2018-04-19T05:56:15.102Z,12.90
2018-04-19T05:58:42.562Z,12.80
2018-04-19T06:01:09.987Z,12.90
2018-04-19T06:03:38.203Z,13.10
2018-04-19T06:06:05.640Z,13.00
2018-04-19T06:08:33.148Z,13.20
2018-04-19T06:11:00.529Z,13.30
2018-04-19T06:13:28.760Z,13.40
2018-04-19T06:15:56.228Z,13.40
2018-04-19T06:18:23.664Z,13.50
2018-04-19T06:20:51.103Z,13.60
2018-04-19T06:23:18.582Z,13.60
2018-04-19T06:25:46.037Z,13.60
2018-04-19T06:28:13.484Z,13.70
2018-04-19T06:30:40.931Z,13.80
2018-04-19T06:33:08.372Z,13.80
2018-04-19T06:35:35.808Z,13.90
2018-04-19T06:38:04.030Z,14.10
2018-04-19T06:40:31.492Z,14.00
2018-04-19T06:42:58.933Z,14.10
2018-04-19T06:45:26.376Z,14.20
2018-04-19T06:47:53.824Z,14.20
2018-04-19T06:50:21.274Z,14.30
2018-04-19T06:52:49.484Z,14.50
2018-04-19T06:55:16.942Z,14.40
2018-04-19T06:57:44.379Z,14.50
2018-04-19T07:00:11.860Z,14.60
2018-04-19T07:02:39.289Z,14.60
2018-04-19T07:05:06.749Z,14.70
2018-04-19T07:07:34.172Z,14.80
2018-04-19T07:10:02.436Z,15.20
2018-04-19T07:12:29.862Z,15.10
2018-04-19T07:14:57.292Z,15.30
2018-04-19T07:17:24.748Z,15.40
2018-04-19T07:19:52.180Z,15.60
2018-04-19T07:22:20.407Z,16.00
2018-04-19T07:24:47.854Z,16.00
2018-04-19T07:27:15.281Z,16.20
2018-04-19T07:29:42.736Z,16.30
2018-04-19T07:32:11.094Z,16.80
2018-04-19T07:34:38.505Z,16.70
2018-04-19T07:37:05.963Z,17.00
2018-04-19T07:39:33.397Z,17.20
2018-04-19T07:42:00.917Z,17.30
2018-04-19T07:44:28.344Z,17.40
2018-04-19T07:46:55.777Z,17.60
2018-04-19T07:49:23.259Z,17.70
2018-04-19T07:51:50.693Z,17.80
2018-04-19T07:54:18.135Z,17.90
2018-04-19T07:56:45.845Z,18.10
2018-04-19T07:59:13.280Z,18.40
2018-04-19T08:01:40.721Z,18.60
2018-04-19T08:04:08.995Z,19.00
2018-04-19T08:06:36.512Z,18.90
2018-04-19T08:09:05.435Z,19.30
2018-04-19T08:11:32.861Z,19.30
2018-04-19T08:14:01.075Z,19.40
2018-04-19T08:16:28.505Z,19.30
2018-04-19T08:18:56.786Z,19.60
2018-04-19T08:21:24.156Z,19.50
2018-04-19T08:23:51.611Z,19.60
2018-04-19T08:26:19.041Z,19.70
2018-04-19T08:28:47.241Z,20.00
2018-04-19T08:31:14.696Z,20.00
2018-04-19T08:33:42.136Z,20.20
2018-04-19T08:36:10.321Z,20.70
2018-04-19T08:38:37.760Z,20.60
2018-04-19T08:41:05.986Z,21.10
2018-04-19T08:43:33.423Z,21.00
2018-04-19T08:46:00.877Z,21.40
2018-04-19T08:48:28.323Z,21.50
2018-04-19T08:50:55.752Z,21.70
2018-04-19T08:53:23.213Z,22.00
2018-04-19T08:55:50.652Z,22.40
2018-04-19T08:58:18.085Z,22.50
2018-04-19T09:00:45.600Z,22.70
2018-04-19T09:03:13.764Z,22.70
2018-04-19T09:05:41.967Z,22.90
2018-04-19T09:08:09.408Z,22.80
2018-04-19T09:10:36.837Z,22.90
2018-04-19T09:13:04.280Z,23.30
2018-04-19T09:15:31.733Z,23.60
2018-04-19T09:17:59.166Z,23.70
2018-04-19T09:20:26.616Z,23.90
2018-04-19T09:22:54.047Z,24.20
2018-04-19T09:25:22.269Z,24.50
2018-04-19T09:27:49.705Z,24.40
2018-04-19T09:30:17.940Z,24.80
2018-04-19T09:32:46.187Z,25.40
2018-04-19T09:35:13.624Z,25.30
2018-04-19T09:37:41.059Z,25.00
2018-04-19T09:40:08.496Z,25.10
2018-04-19T09:42:36.706Z,25.50
2018-04-19T09:45:04.140Z,25.50
2018-04-19T09:47:31.589Z,26.20
2018-04-19T09:49:59.021Z,26.90
2018-04-19T09:52:27.237Z,27.60
2018-04-19T09:54:54.678Z,27.50
2018-04-19T09:57:22.118Z,27.60
2018-04-19T09:59:50.331Z,28.70
2018-04-19T10:02:17.802Z,28.60
2018-04-19T10:04:46.017Z,29.40
2018-04-19T10:07:14.541Z,30.00
2018-04-19T10:09:41.956Z,29.90
2018-04-19T10:12:10.177Z,30.60
2018-04-19T10:14:37.621Z,30.50
2018-04-19T10:17:05.361Z,30.60
2018-04-19T10:19:33.581Z,30.50
2018-04-19T10:22:01.021Z,30.40
2018-04-19T10:24:28.452Z,30.60
2018-04-19T10:26:56.663Z,31.40
2018-04-19T10:29:24.113Z,31.30
2018-04-19T10:31:51.537Z,31.40
2018-04-19T10:34:19.753Z,31.20
2018-04-19T10:36:47.310Z,31.20
2018-04-19T10:39:14.744Z,31.50
2018-04-19T10:41:42.250Z,31.50
2018-04-19T10:44:09.705Z,31.30
2018-04-19T10:46:37.147Z,31.50
2018-04-19T10:49:04.601Z,31.30
2018-04-19T10:51:32.045Z,31.80
2018-04-19T10:53:59.496Z,32.00
2018-04-19T10:56:26.927Z,32.30
2018-04-19T10:58:55.145Z,32.90
2018-04-19T11:01:22.597Z,32.80
2018-04-19T11:03:50.042Z,32.20
2018-04-19T11:06:17.492Z,32.50
2018-04-19T11:08:44.950Z,33.10
2018-04-19T11:11:12.388Z,32.80
2018-04-19T11:13:39.849Z,32.90
2018-04-19T11:16:07.288Z,32.40
2018-04-19T11:18:35.480Z,33.30
2018-04-19T11:21:02.925Z,33.30
2018-04-19T11:23:31.148Z,33.10
2018-04-19T11:25:58.601Z,33.00
2018-04-19T11:28:26.056Z,33.00
2018-04-19T11:30:53.522Z,33.10
2018-04-19T11:33:20.944Z,32.90
2018-04-19T11:35:48.394Z,32.90
2018-04-19T11:38:15.817Z,31.60
2018-04-19T11:40:43.278Z,31.10
2018-04-19T11:43:10.713Z,30.40
2018-04-19T11:45:38.157Z,29.40
2018-04-19T11:48:05.610Z,28.60
2018-04-19T11:50:33.058Z,27.90
2018-04-19T11:53:00.512Z,27.50
2018-04-19T11:55:27.963Z,27.10
2018-04-19T11:57:55.421Z,26.80
2018-04-19T12:00:23.703Z,26.60
2018-04-19T12:02:51.127Z,26.40
2018-04-19T12:05:18.592Z,26.30
2018-04-19T12:07:46.029Z,26.20
2018-04-19T12:10:14.235Z,26.00
2018-04-19T12:12:41.722Z,26.00
2018-04-19T12:15:09.914Z,25.90
2018-04-19T12:17:37.365Z,25.90
2018-04-19T12:20:04.813Z,25.80
2018-04-19T12:22:32.269Z,25.80
2018-04-19T12:24:59.699Z,25.70
2018-04-19T12:27:26.692Z,25.70
2018-04-19T12:29:53.705Z,25.80
2018-04-19T12:32:21.149Z,25.80
2018-04-19T12:34:48.148Z,25.90
2018-04-19T12:37:15.170Z,25.80
2018-04-19T12:39:42.152Z,25.80
2018-04-19T12:42:09.139Z,25.80
2018-04-19T12:44:36.136Z,25.80
2018-04-19T12:47:03.127Z,25.90
2018-04-19T12:49:30.126Z,25.70
2018-04-19T12:51:57.149Z,25.70
2018-04-19T12:54:24.162Z,25.70
2018-04-19T12:56:51.168Z,25.80
2018-04-19T12:59:18.646Z,25.80
2018-04-19T13:01:46.188Z,25.90
2018-04-19T13:04:14.405Z,25.90
2018-04-19T13:06:41.848Z,25.80
2018-04-19T13:09:08.860Z,25.90
2018-04-19T13:11:35.868Z,25.90
2018-04-19T13:14:03.634Z,25.90
2018-04-19T13:16:30.624Z,25.80
2018-04-19T13:18:58.393Z,25.90
2018-04-19T13:21:25.412Z,25.80
2018-04-19T13:23:52.402Z,26.00
2018-04-19T13:26:19.383Z,26.00
2018-04-19T13:28:46.837Z,26.00
2018-04-19T13:31:13.820Z,26.10
2018-04-19T13:33:41.591Z,26.10
2018-04-19T13:36:09.360Z,26.10
2018-04-19T13:38:36.394Z,26.10
2018-04-19T13:41:03.436Z,26.10
2018-04-19T13:43:30.433Z,26.00
2018-04-19T13:45:57.437Z,25.80
2018-04-19T13:48:25.191Z,25.70
2018-04-19T13:50:52.212Z,25.70
2018-04-19T13:53:19.199Z,25.70
2018-04-19T13:55:46.980Z,25.80
2018-04-19T13:58:14.021Z,25.70
2018-04-19T14:00:41.505Z,25.80
2018-04-19T14:03:08.526Z,25.80
2018-04-19T14:05:35.547Z,25.80
2018-04-19T14:08:02.562Z,25.80
2018-04-19T14:10:29.565Z,25.80
2018-04-19T14:12:57.341Z,25.60
2018-04-19T14:15:24.331Z,25.60
2018-04-19T14:17:52.103Z,25.50
2018-04-19T14:20:19.097Z,25.50
2018-04-19T14:22:46.098Z,25.50
2018-04-19T14:25:13.170Z,25.50
2018-04-19T14:27:40.534Z,25.40
2018-04-19T14:30:07.540Z,25.30
2018-04-19T14:32:34.539Z,25.30
2018-04-19T14:35:01.556Z,25.20
2018-04-19T14:37:28.569Z,25.20
2018-04-19T14:39:55.560Z,25.20
2018-04-19T14:42:23.335Z,25.10
2018-04-19T14:44:51.088Z,25.00
2018-04-19T14:47:18.877Z,25.00
2018-04-19T14:49:45.855Z,25.00
2018-04-19T14:52:12.851Z,24.90
2018-04-19T14:54:39.847Z,24.80
2018-04-19T14:57:06.852Z,24.70
2018-04-19T14:59:33.860Z,24.60
2018-04-19T15:02:00.854Z,24.40
2018-04-19T15:04:27.875Z,24.30
2018-04-19T15:06:56.697Z,24.30
2018-04-19T15:09:24.173Z,24.20
2018-04-19T15:11:51.607Z,24.00
2018-04-19T15:14:18.615Z,23.90
2018-04-19T15:16:46.381Z,23.70
2018-04-19T15:19:14.140Z,23.60
2018-04-19T15:21:41.569Z,23.50
2018-04-19T15:24:09.042Z,23.60
2018-04-19T15:26:36.035Z,23.50
2018-04-19T15:29:03.040Z,23.40
2018-04-19T15:31:30.492Z,23.40
2018-04-19T15:33:57.941Z,23.30
2018-04-19T15:36:25.376Z,23.30
2018-04-19T15:38:52.813Z,23.20
2018-04-19T15:41:20.339Z,23.10
2018-04-19T15:43:47.891Z,23.10
2018-04-19T15:46:15.326Z,23.00
2018-04-19T15:48:42.323Z,23.00
2018-04-19T15:51:09.337Z,22.90
2018-04-19T15:53:37.108Z,22.80
2018-04-19T15:56:04.128Z,22.80
2018-04-19T15:58:31.113Z,22.80
2018-04-19T16:00:58.124Z,22.70
2018-04-19T16:03:25.138Z,22.70
2018-04-19T16:05:52.133Z,22.70
2018-04-19T16:08:19.231Z,22.70
2018-04-19T16:10:46.223Z,22.60
2018-04-19T16:13:13.995Z,22.50
2018-04-19T16:15:41.872Z,22.50
2018-04-19T16:18:10.076Z,22.40
2018-04-19T16:20:37.527Z,22.40
2018-04-19T16:23:04.981Z,22.40
2018-04-19T16:25:32.425Z,22.30
2018-04-19T16:27:59.895Z,22.30
2018-04-19T16:30:26.885Z,22.30
2018-04-19T16:32:53.889Z,22.20
2018-04-19T16:35:20.880Z,22.20
2018-04-19T16:37:47.884Z,22.10
2018-04-19T16:40:14.912Z,22.10
2018-04-19T16:42:41.904Z,22.10
2018-04-19T16:45:08.907Z,22.00
2018-04-19T16:47:35.900Z,22.00
2018-04-19T16:50:02.914Z,22.00
2018-04-19T16:52:29.948Z,22.00
2018-04-19T16:54:56.962Z,22.00
2018-04-19T16:57:24.720Z,22.00
2018-04-19T16:59:52.524Z,21.90
2018-04-19T17:02:19.539Z,21.90
2018-04-19T17:04:47.304Z,21.80
2018-04-19T17:07:14.292Z,21.80
2018-04-19T17:09:41.342Z,21.80
2018-04-19T17:12:08.340Z,21.80
2018-04-19T17:14:35.573Z,21.80
2018-04-19T17:17:02.551Z,21.70
2018-04-19T17:19:30.308Z,21.60
2018-04-19T17:21:58.072Z,21.60
2018-04-19T17:24:25.824Z,21.50
2018-04-19T17:26:53.606Z,21.50
2018-04-19T17:29:21.355Z,21.40
2018-04-19T17:31:49.136Z,21.40
2018-04-19T17:34:16.895Z,21.30
2018-04-19T17:36:43.888Z,21.30
2018-04-19T17:39:10.879Z,21.30
2018-04-19T17:41:37.859Z,21.20
2018-04-19T17:44:04.876Z,21.20
2018-04-19T17:46:32.631Z,21.10
2018-04-19T17:49:00.420Z,21.00
2018-04-19T17:51:28.188Z,21.00
2018-04-19T17:53:55.200Z,20.90
2018-04-19T17:56:22.192Z,20.90
2018-04-19T17:58:49.176Z,20.80
2018-04-19T18:01:16.196Z,20.80
2018-04-19T18:03:43.221Z,20.70
2018-04-19T18:06:10.221Z,20.70
2018-04-19T18:08:37.215Z,20.60
2018-04-19T18:11:04.215Z,20.60
2018-04-19T18:13:31.213Z,20.50
2018-04-19T18:15:58.227Z,20.40
2018-04-19T18:18:25.992Z,20.30
2018-04-19T18:20:53.749Z,20.30
2018-04-19T18:23:21.552Z,20.20
2018-04-19T18:25:48.540Z,20.20
2018-04-19T18:28:15.536Z,20.20
2018-04-19T18:30:42.553Z,20.10
2018-04-19T18:33:10.342Z,20.00
2018-04-19T18:35:38.107Z,20.00
2018-04-19T18:38:05.869Z,19.90
2018-04-19T18:40:33.669Z,19.90
2018-04-19T18:43:00.854Z,19.80
2018-04-19T18:45:27.896Z,19.80
2018-04-19T18:47:54.837Z,19.80
2018-04-19T18:50:23.064Z,19.60
2018-04-19T18:52:50.497Z,19.60
2018-04-19T18:55:18.710Z,19.50
2018-04-19T18:57:46.181Z,19.50
2018-04-19T19:00:13.666Z,19.50
2018-04-19T19:02:41.117Z,19.40
2018-04-19T19:05:08.568Z,19.40
2018-04-19T19:07:36.009Z,19.40
2018-04-19T19:10:03.475Z,19.30
2018-04-19T19:12:30.896Z,19.30
2018-04-19T19:14:58.352Z,19.30
2018-04-19T19:17:37.759Z,19.20
2018-04-19T19:20:08.092Z,19.20
2018-04-19T19:22:36.307Z,19.10
2018-04-19T19:25:03.746Z,19.00
2018-04-19T19:27:31.176Z,19.00
2018-04-19T19:29:59.389Z,18.90
2018-04-19T19:32:26.846Z,18.90
2018-04-19T19:34:54.280Z,18.90
2018-04-19T19:37:21.727Z,18.90
2018-04-19T19:39:49.946Z,18.80
2018-04-19T19:42:17.412Z,18.70
2018-04-19T19:44:45.551Z,18.80
2018-04-19T19:47:12.989Z,18.70
2018-04-19T19:49:41.226Z,18.60
2018-04-19T19:52:08.664Z,18.60
2018-04-19T19:54:36.093Z,18.60
2018-04-19T19:57:03.562Z,18.60
2018-04-19T19:59:31.001Z,18.50
2018-04-19T20:01:58.460Z,18.50
2018-04-19T20:04:25.908Z,18.50
2018-04-19T20:06:54.119Z,18.40
2018-04-19T20:09:21.565Z,18.30
2018-04-19T20:11:49.025Z,18.30
2018-04-19T20:14:16.456Z,18.30
2018-04-19T20:16:44.668Z,18.20
2018-04-19T20:19:12.098Z,18.20
2018-04-19T20:21:39.537Z,18.20
2018-04-19T20:24:07.754Z,18.10
2018-04-19T20:26:35.220Z,18.10
2018-04-19T20:29:02.657Z,18.10
2018-04-19T20:31:30.085Z,18.10
2018-04-19T20:33:58.309Z,18.00
2018-04-19T20:36:25.747Z,17.90
2018-04-19T20:38:53.205Z,17.90
2018-04-19T20:41:20.660Z,17.90
2018-04-19T20:43:48.092Z,17.80
2018-04-19T20:46:15.555Z,17.80
2018-04-19T20:48:43.000Z,17.70
2018-04-19T20:51:10.445Z,17.70
2018-04-19T20:53:38.658Z,17.60
2018-04-19T20:56:06.084Z,17.60
2018-04-19T20:58:33.540Z,17.60
2018-04-19T21:01:01.744Z,17.50
2018-04-19T21:03:29.200Z,17.50
2018-04-19T21:05:56.653Z,17.50
2018-04-19T21:08:24.079Z,17.40
2018-04-19T21:10:52.301Z,17.30
2018-04-19T21:13:19.846Z,17.30
2018-04-19T21:15:47.325Z,17.30
2018-04-19T21:18:14.758Z,17.30
2018-04-19T21:20:42.188Z,17.30
2018-04-19T21:23:10.613Z,17.20
2018-04-19T21:25:38.213Z,17.10
2018-04-19T21:28:05.637Z,17.10
2018-04-19T21:30:33.093Z,17.10
2018-04-19T21:33:00.547Z,17.10
2018-04-19T21:35:27.985Z,17.00
2018-04-19T21:37:55.420Z,17.00
2018-04-19T21:40:22.878Z,17.00
2018-04-19T21:42:50.354Z,17.00
2018-04-19T21:45:17.781Z,17.00
2018-04-19T21:47:46.008Z,16.90
2018-04-19T21:50:13.461Z,16.90
2018-04-19T21:52:40.896Z,16.90
2018-04-19T21:55:08.337Z,16.90
2018-04-19T21:57:35.778Z,16.90
2018-04-19T22:00:03.998Z,16.80
2018-04-19T22:02:31.440Z,16.80
2018-04-19T22:04:58.872Z,16.80
2018-04-19T22:07:26.325Z,16.80
2018-04-19T22:09:54.550Z,16.70
2018-04-19T22:12:21.972Z,16.70
2018-04-19T22:14:49.451Z,16.70
2018-04-19T22:17:16.885Z,16.70
2018-04-19T22:19:44.317Z,16.60
2018-04-19T22:22:12.517Z,16.60
2018-04-19T22:24:40.219Z,16.60
2018-04-19T22:27:07.645Z,16.60
2018-04-19T22:29:35.084Z,16.60
2018-04-19T22:32:02.641Z,16.60
2018-04-19T22:34:30.089Z,16.60
2018-04-19T22:36:58.300Z,16.50
2018-04-19T22:39:25.745Z,16.50
2018-04-19T22:41:53.168Z,16.50
2018-04-19T22:44:21.387Z,16.50
2018-04-19T22:46:48.819Z,16.40
2018-04-19T22:49:16.292Z,16.40
2018-04-19T22:51:43.716Z,16.40
2018-04-19T22:54:11.932Z,16.40
2018-04-19T22:56:39.381Z,16.30
2018-04-19T22:59:06.835Z,16.30
2018-04-19T23:01:34.279Z,16.30
2018-04-19T23:04:01.709Z,16.30
2018-04-19T23:06:29.904Z,16.20
2018-04-19T23:08:57.348Z,16.10
2018-04-19T23:11:25.565Z,16.10
2018-04-19T23:13:52.989Z,16.10
2018-04-19T23:16:20.456Z,16.10
2018-04-19T23:18:47.900Z,16.10
2018-04-19T23:21:16.108Z,16.00
2018-04-19T23:23:43.541Z,16.00
2018-04-19T23:26:10.981Z,16.00
2018-04-19T23:28:39.194Z,15.90
2018-04-19T23:31:06.616Z,15.80
2018-04-19T23:33:34.852Z,15.90
2018-04-19T23:36:02.300Z,15.80
2018-04-19T23:38:29.730Z,15.80
2018-04-19T23:40:56.728Z,15.80
2018-04-19T23:43:23.724Z,15.80
2018-04-19T23:45:50.733Z,15.80
2018-04-19T23:48:18.529Z,15.70
2018-04-19T23:50:45.960Z,15.70
2018-04-19T23:53:14.152Z,15.70
2018-04-19T23:55:41.852Z,15.60
2018-04-19T23:58:09.285Z,15.70
